Time;durP1;ratioP1;P1;durP2;ratioP2;P2;SDS_P1;SDS_P2;PMS_P1;PMS_P2;Temp;Humidity;BMP_temperature;BMP_pressure;BME280_temperature;BME280_humidity;BME280_pressure;Samples;Min_cycle;Max_cycle;Signal;HPM_P1;HPM_P2
2023/05/08 00:00:07;;;;;;;0.77;0.77;;;;;;;18.71;66.02;101369.22;5193026;28;20568;-88
2023/05/08 00:02:57;;;;;;;1.35;1.25;;;;;;;18.72;65.90;101378.88;5184011;28;20110;-87
2023/05/08 00:05:48;;;;;;;2.15;0.88;;;;;;;18.72;65.72;101378.88;5185884;28;20037;-88
2023/05/08 00:08:40;;;;;;;0.40;0.40;;;;;;;18.69;65.63;101379.06;5179631;28;20390;-88
2023/05/08 00:11:31;;;;;;;0.90;0.90;;;;;;;18.66;65.74;101374.75;5188005;28;20083;-88
2023/05/08 00:14:22;;;;;;;0.40;0.40;;;;;;;18.63;65.73;101374.06;5196350;28;20122;-89
2023/05/08 00:17:13;;;;;;;0.40;0.40;;;;;;;18.62;65.83;101378.50;5182253;28;20034;-88
2023/05/08 00:20:04;;;;;;;1.10;1.05;;;;;;;18.61;65.84;101382.09;5185684;28;20048;-88
2023/05/08 00:22:56;;;;;;;0.93;0.85;;;;;;;18.56;65.88;101384.97;5190967;28;20056;-87
2023/05/08 00:25:47;;;;;;;0.50;0.50;;;;;;;18.58;66.12;101382.25;5207166;28;20025;-87
2023/05/08 00:28:38;;;;;;;1.33;1.10;;;;;;;18.55;66.07;101375.28;5201944;28;20064;-88
2023/05/08 00:31:28;;;;;;;1.17;1.08;;;;;;;18.56;66.13;101386.78;5190013;28;20049;-89
2023/05/08 00:34:19;;;;;;;1.08;1.02;;;;;;;18.52;65.96;101380.78;5181710;28;20034;-89
2023/05/08 00:37:10;;;;;;;0.52;0.52;;;;;;;18.53;66.18;101384.28;5184148;28;20033;-89
2023/05/08 00:40:01;;;;;;;1.27;1.17;;;;;;;18.52;65.82;101385.22;5185273;28;20034;-88
2023/05/08 00:42:52;;;;;;;0.82;0.80;;;;;;;18.46;66.08;101383.75;5186195;28;20038;-88
2023/05/08 00:45:42;;;;;;;0.80;0.80;;;;;;;18.43;65.95;101380.38;5194549;28;20041;-88
2023/05/08 00:48:34;;;;;;;0.63;0.63;;;;;;;18.40;66.08;101384.03;5188188;28;20179;-89
2023/05/08 00:51:25;;;;;;;1.15;1.05;;;;;;;18.40;65.94;101387.56;5191613;28;20056;-88
2023/05/08 00:54:17;;;;;;;0.60;0.60;;;;;;;18.40;66.08;101381.38;5187946;28;20072;-88
2023/05/08 00:57:08;;;;;;;0.50;0.50;;;;;;;18.37;66.17;101379.72;5186325;28;20087;-88
2023/05/08 01:00:00;;;;;;;1.08;0.85;;;;;;;18.36;65.97;101380.66;5204113;28;20045;-88
2023/05/08 01:02:51;;;;;;;0.60;0.60;;;;;;;18.39;66.14;101379.63;5185335;28;20053;-88
2023/05/08 01:05:42;;;;;;;1.50;0.90;;;;;;;18.35;66.26;101383.41;5180834;28;20129;-88
2023/05/08 01:08:33;;;;;;;0.85;0.85;;;;;;;18.37;66.12;101384.19;5186260;28;20030;-87
2023/05/08 01:11:48;;;;;;;0.93;0.93;;;;;;;18.34;65.86;101387.00;5198014;28;20142;-86
2023/05/08 01:14:48;;;;;;;1.15;1.00;;;;;;;18.32;66.11;101387.06;5199321;28;20685;-88
2023/05/08 01:18:07;;;;;;;0.50;0.50;;;;;;;18.32;66.20;101380.88;5198389;28;20055;-88
2023/05/08 01:21:02;;;;;;;0.80;0.60;;;;;;;18.30;66.31;101388.94;5186632;28;20041;-90
2023/05/08 01:24:13;;;;;;;0.50;0.45;;;;;;;18.28;66.27;101389.94;5203765;28;20061;-88
2023/05/08 01:27:25;;;;;;;3.28;1.25;;;;;;;18.24;66.27;101383.94;5205481;28;20514;-87
2023/05/08 01:30:42;;;;;;;0.30;0.30;;;;;;;18.20;66.04;101385.00;5196745;28;20087;-89
2023/05/08 01:33:40;;;;;;;0.70;0.70;;;;;;;18.20;66.31;101391.19;5189899;28;20061;-88
2023/05/08 01:36:47;;;;;;;0.30;0.30;;;;;;;18.19;66.21;101397.44;5198248;28;20133;-87
2023/05/08 01:39:44;;;;;;;1.77;1.02;;;;;;;18.16;65.90;101402.03;5198453;28;20077;-89
2023/05/08 01:42:52;;;;;;;0.80;0.63;;;;;;;18.12;66.03;101401.31;5198717;28;20453;-87
2023/05/08 01:45:50;;;;;;;0.63;0.63;;;;;;;18.07;66.49;101398.00;5195332;28;20045;-87
2023/05/08 01:48:50;;;;;;;0.40;0.40;;;;;;;18.06;66.08;101401.59;5187172;28;20038;-89
2023/05/08 01:51:44;;;;;;;0.40;0.40;;;;;;;18.07;66.28;101405.97;5181124;28;20033;-88
2023/05/08 01:54:45;;;;;;;31.58;0.77;;;;;;;18.05;66.24;101405.22;5184978;28;20061;-87
2023/05/08 01:57:42;;;;;;;0.65;0.65;;;;;;;18.05;66.22;101408.72;5209817;28;20016;-86
2023/05/08 02:00:33;;;;;;;1.17;1.08;;;;;;;18.02;65.86;101413.31;5193228;28;20406;-87
2023/05/08 02:03:25;;;;;;;0.47;0.47;;;;;;;17.99;66.18;101411.66;5186727;28;20515;-87
2023/05/08 02:06:19;;;;;;;0.98;0.95;;;;;;;17.95;65.94;101412.69;5180445;28;20026;-88
2023/05/08 02:09:11;;;;;;;0.75;0.75;;;;;;;17.89;66.11;101421.81;5183948;28;20045;-89
2023/05/08 02:12:05;;;;;;;0.30;0.30;;;;;;;17.87;66.29;101418.38;5184443;28;20030;-88
2023/05/08 02:14:57;;;;;;;0.93;0.57;;;;;;;17.83;66.01;101424.75;5196843;28;20441;-90
2023/05/08 02:17:50;;;;;;;0.70;0.70;;;;;;;17.75;66.05;101421.59;5202351;28;20093;-88
2023/05/08 02:20:41;;;;;;;0.55;0.35;;;;;;;17.76;66.32;101425.97;5181079;28;20107;-88
2023/05/08 02:23:33;;;;;;;0.68;0.68;;;;;;;17.74;66.26;101426.06;5194865;28;20042;-89
2023/05/08 02:26:25;;;;;;;0.30;0.30;;;;;;;17.74;65.90;101425.19;5201113;28;20025;-89
2023/05/08 02:29:17;;;;;;;0.73;0.73;;;;;;;17.73;66.06;101434.94;5199068;28;20591;-88
2023/05/08 02:32:08;;;;;;;0.73;0.73;;;;;;;17.74;66.35;101434.03;5190369;28;20036;-88
2023/05/08 02:35:00;;;;;;;2.00;1.20;;;;;;;17.72;65.96;101435.03;5183756;28;20592;-89
2023/05/08 02:37:54;;;;;;;0.95;0.43;;;;;;;17.69;66.21;101437.81;5206596;28;20068;-89
2023/05/08 02:40:49;;;;;;;6.80;1.30;;;;;;;17.68;66.23;101428.13;5209907;28;20022;-88
2023/05/08 02:43:41;;;;;;;2.45;1.35;;;;;;;17.65;66.40;101428.25;5205349;28;20045;-86
2023/05/08 02:46:39;;;;;;;0.52;0.52;;;;;;;17.64;66.09;101438.00;5211272;28;20040;-87
2023/05/08 02:49:37;;;;;;;0.43;0.43;;;;;;;17.54;66.70;101431.41;5213820;28;20022;-86
2023/05/08 02:52:31;;;;;;;1.70;1.20;;;;;;;17.54;66.28;101434.03;5206794;28;20013;-87
2023/05/08 02:55:31;;;;;;;;;;;;;;;17.53;66.40;101425.25;5195638;28;20052;-88
2023/05/08 02:58:33;;;;;;;0.35;0.35;;;;;;;17.50;66.23;101422.72;5192183;28;19921;-88
2023/05/08 03:01:36;;;;;;;0.43;0.43;;;;;;;17.52;66.54;101415.56;5202575;28;20241;-90
2023/05/08 03:04:33;;;;;;;2.67;1.20;;;;;;;17.48;66.22;101416.59;5202860;28;20050;-87
2023/05/08 03:07:27;;;;;;;1.75;0.82;;;;;;;17.50;66.29;101411.25;5204452;28;20022;-88
2023/05/08 03:10:18;;;;;;;;;;;;;;;17.49;66.47;101410.38;5195479;28;20144;-88
2023/05/08 03:13:10;;;;;;;0.50;0.50;;;;;;;17.48;66.46;101416.59;5191968;28;19921;-89
2023/05/08 03:16:03;;;;;;;0.30;0.30;;;;;;;17.47;66.63;101406.97;5189539;28;20068;-87
2023/05/08 03:19:00;;;;;;;0.60;0.60;;;;;;;17.44;66.42;101413.22;5191105;28;20038;-88
2023/05/08 03:21:53;;;;;;;1.50;1.20;;;;;;;17.48;66.45;101416.59;5202441;28;20590;-88
2023/05/08 03:24:45;;;;;;;0.85;0.85;;;;;;;17.41;66.66;101416.03;5202978;28;20045;-86
2023/05/08 03:27:38;;;;;;;1.15;0.93;;;;;;;17.40;66.53;101416.09;5211524;28;20089;-87
2023/05/08 03:30:30;;;;;;;1.15;1.15;;;;;;;17.39;66.50;101411.75;5221548;28;20093;-87
2023/05/08 03:33:22;;;;;;;2.55;2.35;;;;;;;17.36;66.45;101406.56;5195333;28;20041;-89
2023/05/08 03:36:17;;;;;;;1.02;0.93;;;;;;;17.34;66.74;101405.75;5187315;28;20034;-88
2023/05/08 03:39:08;;;;;;;0.60;0.60;;;;;;;17.32;66.35;101405.84;5188068;28;20037;-88
2023/05/08 03:41:58;;;;;;;7.38;1.95;;;;;;;17.30;66.49;101411.22;5187779;28;20967;-88
2023/05/08 03:44:50;;;;;;;0.90;0.90;;;;;;;17.26;66.34;101403.47;5184476;28;20722;-88
2023/05/08 03:47:43;;;;;;;0.38;0.38;;;;;;;17.24;66.25;101408.81;5196264;28;20025;-88
2023/05/08 03:50:36;;;;;;;0.35;0.35;;;;;;;17.17;66.35;101407.38;5203394;28;20117;-87
2023/05/08 03:53:31;;;;;;;2.20;1.48;;;;;;;17.10;66.54;101411.22;5190304;28;20039;-87
2023/05/08 03:56:22;;;;;;;0.55;0.55;;;;;;;17.08;66.38;101423.69;5188760;28;20013;-88
2023/05/08 03:59:16;;;;;;;0.55;0.55;;;;;;;17.09;66.54;101414.81;5185859;28;20124;-88
2023/05/08 04:02:40;;;;;;;0.82;0.82;;;;;;;17.01;66.27;101417.81;5191619;28;20021;-88
2023/05/08 04:05:36;;;;;;;;;;;;;;;17.01;66.39;101419.56;5192804;28;20038;-86
2023/05/08 04:08:38;;;;;;;1.13;1.13;;;;;;;16.96;66.12;101428.59;5191664;28;19913;-88
2023/05/08 04:12:01;;;;;;;0.80;0.80;;;;;;;16.90;66.22;101420.84;5193351;28;20045;-89
2023/05/08 04:14:58;;;;;;;0.77;0.77;;;;;;;16.91;66.20;101429.69;5184185;28;20097;-89
2023/05/08 04:17:53;;;;;;;0.43;0.43;;;;;;;16.89;66.38;101427.09;5191626;28;20029;-88
2023/05/08 04:20:47;;;;;;;0.60;0.60;;;;;;;16.88;66.24;101421.84;5190525;28;20072;-89
2023/05/08 04:23:40;;;;;;;0.60;0.60;;;;;;;16.86;66.06;101424.56;5189027;28;20553;-89
2023/05/08 04:26:32;;;;;;;1.33;1.23;;;;;;;16.86;66.41;101423.72;5185250;28;20052;-87
2023/05/08 04:29:23;;;;;;;2.17;1.42;;;;;;;16.75;66.68;101427.69;5196313;28;20039;-87
2023/05/08 04:32:15;;;;;;;1.30;1.20;;;;;;;16.76;66.36;101433.84;5180983;28;20054;-85
2023/05/08 04:35:06;;;;;;;0.80;0.80;;;;;;;16.75;66.23;101429.47;5190340;28;20029;-87
2023/05/08 04:37:58;;;;;;;2.03;0.57;;;;;;;16.62;66.81;101432.63;5180516;28;20049;-84
2023/05/08 04:40:49;;;;;;;0.73;0.73;;;;;;;16.65;66.39;101428.97;5181086;28;20038;-85
2023/05/08 04:43:39;;;;;;;0.32;0.32;;;;;;;16.66;66.66;101428.06;5191657;28;20037;-85
2023/05/08 04:46:30;;;;;;;0.65;0.65;;;;;;;16.63;66.61;101428.19;5197525;28;20146;-85
2023/05/08 04:49:21;;;;;;;0.70;0.70;;;;;;;16.61;66.49;101420.31;5178406;28;20037;-87
2023/05/08 04:52:12;;;;;;;0.43;0.43;;;;;;;16.60;66.45;101428.31;5192912;28;20037;-85
2023/05/08 04:55:03;;;;;;;2.92;1.17;;;;;;;16.59;66.86;101440.69;5193973;28;20042;-85
2023/05/08 04:57:54;;;;;;;1.30;1.05;;;;;;;16.54;66.69;101437.38;5189718;28;20049;-87
2023/05/08 05:00:44;;;;;;;0.57;0.57;;;;;;;16.52;66.49;101436.56;5183077;28;20048;-87
2023/05/08 05:03:35;;;;;;;2.63;1.00;;;;;;;16.50;66.72;101439.28;5204205;28;20029;-86
2023/05/08 05:06:26;;;;;;;0.30;0.30;;;;;;;16.51;67.15;101445.44;5226670;28;20033;-86
2023/05/08 05:09:17;;;;;;;0.70;0.70;;;;;;;16.53;66.68;101443.59;5205233;28;20093;-86
2023/05/08 05:12:08;;;;;;;0.50;0.50;;;;;;;16.48;67.04;101448.22;5231713;28;20018;-86
2023/05/08 05:14:59;;;;;;;0.57;0.57;;;;;;;16.46;67.01;101452.72;5219252;28;20030;-85
2023/05/08 05:17:50;;;;;;;1.60;1.35;;;;;;;16.44;66.95;101454.56;5208731;28;20042;-86
2023/05/08 05:20:40;;;;;;;2.88;0.90;;;;;;;16.40;67.86;101460.91;5199778;28;20248;-86
2023/05/08 05:23:31;;;;;;;0.40;0.40;;;;;;;16.41;67.20;101463.50;5186818;28;20087;-86
2023/05/08 05:26:22;;;;;;;0.50;0.50;;;;;;;16.43;67.31;101463.44;5179540;28;20081;-88
2023/05/08 05:29:12;;;;;;;6.85;0.88;;;;;;;16.43;67.29;101452.81;5193061;28;20033;-88
2023/05/08 05:32:06;;;;;;;0.60;0.60;;;;;;;16.46;67.41;101458.03;5208687;28;20480;-90
2023/05/08 05:34:56;;;;;;;0.75;0.75;;;;;;;16.44;67.31;101467.81;5202288;28;20056;-86
2023/05/08 05:37:47;;;;;;;1.35;1.25;;;;;;;16.38;68.92;101460.97;5182083;28;20034;-87
2023/05/08 05:40:38;;;;;;;1.35;1.25;;;;;;;16.42;67.91;101461.69;5179835;28;20045;-86
2023/05/08 05:43:29;;;;;;;4.72;1.98;;;;;;;16.44;67.70;101465.16;5197162;28;20052;-86
2023/05/08 05:46:19;;;;;;;1.13;1.00;;;;;;;16.27;75.42;101464.03;5209526;28;20061;-86
2023/05/08 05:49:11;;;;;;;0.70;0.70;;;;;;;16.40;70.44;101468.88;5179723;28;20048;-87
2023/05/08 05:52:02;;;;;;;7.47;2.95;;;;;;;16.41;70.92;101476.75;5208540;28;20715;-89
2023/05/08 05:54:52;;;;;;;1.30;1.05;;;;;;;16.50;69.77;101478.16;5183353;28;20071;-86
2023/05/08 05:57:43;;;;;;;1.05;0.82;;;;;;;16.53;69.94;101480.69;5183408;28;20115;-86
2023/05/08 06:00:34;;;;;;;0.77;0.77;;;;;;;16.45;72.31;101475.69;5177882;28;20033;-86
2023/05/08 06:03:24;;;;;;;1.70;0.85;;;;;;;16.50;71.22;101470.19;5189722;28;20044;-86
2023/05/08 06:06:16;;;;;;;1.45;1.35;;;;;;;16.53;72.40;101475.38;5174668;28;20033;-84
2023/05/08 06:09:07;;;;;;;1.25;1.15;;;;;;;16.60;71.49;101468.91;5186725;28;20037;-86
2023/05/08 06:11:58;;;;;;;0.40;0.40;;;;;;;16.59;74.50;101475.13;5176842;28;20037;-86
2023/05/08 06:14:50;;;;;;;1.02;1.02;;;;;;;16.67;73.33;101480.13;5178720;28;20546;-86
2023/05/08 06:17:41;;;;;;;1.52;1.42;;;;;;;16.67;75.24;101480.13;5178040;28;20095;-85
2023/05/08 06:20:32;;;;;;;3.70;1.38;;;;;;;16.73;75.09;101484.31;5195825;28;20092;-86
2023/05/08 06:23:23;;;;;;;0.80;0.80;;;;;;;16.73;75.76;101484.31;5189830;28;20037;-86
2023/05/08 06:26:14;;;;;;;1.27;1.23;;;;;;;16.82;73.85;101492.75;5200390;28;20124;-86
2023/05/08 06:29:05;;;;;;;3.65;1.83;;;;;;;16.92;73.68;101498.53;5187850;28;20056;-86
2023/05/08 06:31:56;;;;;;;1.65;1.52;;;;;;;16.64;79.49;101496.13;5190493;28;20079;-87
2023/05/08 06:34:47;;;;;;;2.40;2.20;;;;;;;16.65;80.06;101506.66;5203327;28;20021;-87
2023/05/08 06:37:37;;;;;;;1.00;0.95;;;;;;;16.74;78.72;101504.56;5203212;28;20490;-87
2023/05/08 06:40:28;;;;;;;2.83;1.88;;;;;;;16.77;78.63;101505.34;5200036;28;20076;-86
2023/05/08 06:43:19;;;;;;;2.63;2.17;;;;;;;16.57;80.49;101503.47;5191976;28;20041;-86
2023/05/08 06:46:10;;;;;;;1.95;1.70;;;;;;;16.73;78.54;101510.81;5188283;28;20046;-86
2023/05/08 06:49:01;;;;;;;2.65;2.45;;;;;;;16.70;78.49;101502.97;5176637;28;20038;-87
2023/05/08 06:51:52;;;;;;;3.15;1.98;;;;;;;16.86;76.82;101511.19;5178003;28;20129;-86
2023/05/08 06:54:43;;;;;;;1.85;1.75;;;;;;;16.76;78.12;101508.91;5179753;28;20541;-85
2023/05/08 06:57:34;;;;;;;1.38;1.27;;;;;;;16.98;76.46;101503.59;5192739;28;20112;-85
2023/05/08 07:00:24;;;;;;;1.95;1.85;;;;;;;16.97;75.69;101515.16;5176215;28;20199;-86
2023/05/08 07:03:15;;;;;;;1.73;1.63;;;;;;;16.86;77.42;101513.84;5191632;28;20110;-86
2023/05/08 07:06:09;;;;;;;3.58;2.47;;;;;;;16.98;75.96;101514.19;5177989;28;20124;-86
2023/05/08 07:09:00;;;;;;;;;;;;;;;16.84;77.63;101522.72;5174979;28;20077;-86
2023/05/08 07:11:50;;;;;;;1.48;1.20;;;;;;;16.87;77.25;101516.41;5180725;28;20492;-87
2023/05/08 07:14:42;;;;;;;4.85;1.63;;;;;;;16.99;76.26;101526.53;5175858;28;20051;-86
2023/05/08 07:17:35;;;;;;;1.92;1.80;;;;;;;16.98;76.87;101530.09;5189807;28;20037;-86
2023/05/08 07:20:26;;;;;;;1.25;1.15;;;;;;;17.02;75.37;101528.22;5176991;28;20117;-85
2023/05/08 07:23:17;;;;;;;1.50;1.25;;;;;;;17.15;76.00;101526.78;5178537;28;20465;-86
2023/05/08 07:26:08;;;;;;;1.38;1.27;;;;;;;17.19;75.37;101532.81;5176999;28;20417;-86
2023/05/08 07:28:59;;;;;;;1.38;1.05;;;;;;;17.21;75.92;101532.72;5178902;28;20665;-86
2023/05/08 07:31:50;;;;;;;2.30;1.95;;;;;;;17.25;76.30;101540.50;5178815;28;20037;-86
2023/05/08 07:34:42;;;;;;;4.97;2.58;;;;;;;17.30;75.51;101537.66;5187322;28;20069;-84
2023/05/08 07:37:32;;;;;;;2.22;1.85;;;;;;;17.33;75.55;101539.31;5181378;28;20088;-87
2023/05/08 07:40:23;;;;;;;1.20;1.20;;;;;;;17.25;76.13;101539.66;5189842;28;20041;-86
2023/05/08 07:43:14;;;;;;;3.35;1.42;;;;;;;17.24;75.47;101541.41;5175256;28;20567;-86
2023/05/08 07:46:05;;;;;;;2.67;1.90;;;;;;;17.45;74.44;101538.78;5190181;28;20236;-84
2023/05/08 07:48:56;;;;;;;1.52;1.42;;;;;;;17.64;73.00;101532.69;5179457;28;20042;-85
2023/05/08 07:51:47;;;;;;;2.17;1.85;;;;;;;17.57;74.27;101540.91;5189193;28;20044;-85
2023/05/08 07:54:38;;;;;;;7.57;1.15;;;;;;;17.35;74.82;101538.34;5186621;28;20030;-85
2023/05/08 07:57:35;;;;;;;1.25;1.15;;;;;;;17.49;74.81;101532.41;5181476;28;20029;-86
2023/05/08 08:00:27;;;;;;;2.85;2.65;;;;;;;17.44;75.06;101529.97;5184588;28;20532;-86
2023/05/08 08:03:18;;;;;;;1.52;1.42;;;;;;;17.65;74.12;101529.09;5177386;28;20041;-86
2023/05/08 08:06:09;;;;;;;2.03;0.90;;;;;;;17.72;73.40;101528.75;5196391;28;20072;-86
2023/05/08 08:08:59;;;;;;;1.48;1.20;;;;;;;17.74;73.64;101524.25;5216709;28;20030;-86
2023/05/08 08:11:50;;;;;;;0.70;0.70;;;;;;;17.72;74.19;101527.91;5193017;28;20037;-86
2023/05/08 08:14:41;;;;;;;2.70;2.50;;;;;;;17.84;73.51;101530.00;5179379;28;20037;-86
2023/05/08 08:17:32;;;;;;;19.90;2.72;;;;;;;17.93;73.27;101526.94;5181897;28;20715;-87
2023/05/08 08:20:22;;;;;;;2.55;2.13;;;;;;;17.88;73.00;101523.66;5188984;28;20069;-86
2023/05/08 08:23:13;;;;;;;1.77;1.25;;;;;;;18.02;72.32;101530.13;5175615;28;20042;-87
2023/05/08 08:26:04;;;;;;;1.38;1.27;;;;;;;18.00;72.71;101532.00;5194502;28;20076;-87
2023/05/08 08:28:55;;;;;;;1.20;0.93;;;;;;;18.12;71.94;101527.91;5173001;28;20060;-87
2023/05/08 08:31:46;;;;;;;2.03;1.60;;;;;;;18.16;71.92;101534.81;5177617;28;20112;-87
2023/05/08 08:34:36;;;;;;;1.23;1.17;;;;;;;18.32;71.66;101534.97;5195356;28;20036;-85
2023/05/08 08:37:27;;;;;;;1.05;0.95;;;;;;;18.32;71.86;101532.31;5192642;28;20071;-86
2023/05/08 08:40:18;;;;;;;2.05;1.88;;;;;;;18.30;72.17;101526.22;5186874;28;20034;-86
2023/05/08 08:43:09;;;;;;;3.65;2.00;;;;;;;18.33;72.17;101531.38;5174626;28;20069;-86
2023/05/08 08:46:07;;;;;;;0.63;0.63;;;;;;;18.37;71.50;101531.16;5179800;28;20042;-85
2023/05/08 08:49:02;;;;;;;1.00;1.00;;;;;;;18.39;71.80;101528.41;5177083;28;20049;-85
2023/05/08 08:51:58;;;;;;;2.25;1.48;;;;;;;18.33;71.38;101532.25;5178556;28;20045;-85
2023/05/08 08:54:50;;;;;;;1.17;1.15;;;;;;;18.33;71.42;101534.91;5182838;28;20703;-85
2023/05/08 08:57:51;;;;;;;1.60;1.33;;;;;;;18.37;70.89;101527.66;5206105;28;20046;-85
2023/05/08 09:00:42;;;;;;;3.83;1.73;;;;;;;18.53;70.95;101528.66;5187892;28;20052;-85
2023/05/08 09:03:33;;;;;;;1.38;1.27;;;;;;;18.55;70.64;101531.22;5197626;28;20099;-86
2023/05/08 09:06:26;;;;;;;0.77;0.75;;;;;;;18.47;70.66;101526.25;5181176;28;20061;-84
2023/05/08 09:09:17;;;;;;;1.65;1.42;;;;;;;18.59;70.73;101523.97;5179010;28;20041;-85
2023/05/08 09:12:08;;;;;;;0.57;0.57;;;;;;;18.74;70.19;101533.84;5178663;28;20025;-86
2023/05/08 09:14:58;;;;;;;1.95;1.15;;;;;;;18.74;70.48;101533.84;5193153;28;20212;-85
2023/05/08 09:17:49;;;;;;;2.05;0.77;;;;;;;18.87;70.00;101532.34;5179925;28;20044;-85
2023/05/08 09:20:40;;;;;;;1.08;0.95;;;;;;;18.95;69.98;101529.31;5179088;28;20110;-85
2023/05/08 09:23:31;;;;;;;3.83;1.48;;;;;;;18.76;70.17;101528.47;5188210;28;20045;-86
2023/05/08 09:26:39;;;;;;;0.98;0.95;;;;;;;18.87;70.08;101524.34;5181994;28;20181;-85
2023/05/08 09:29:29;;;;;;;0.95;0.95;;;;;;;19.10;68.97;101524.16;5189211;28;20112;-87
2023/05/08 09:32:20;;;;;;;1.08;0.98;;;;;;;19.07;69.33;101522.50;5199091;28;20036;-86
2023/05/08 09:35:12;;;;;;;0.60;0.60;;;;;;;19.16;69.25;101521.19;5179212;28;20029;-86
2023/05/08 09:38:02;;;;;;;0.68;0.68;;;;;;;19.13;69.94;101516.88;5199646;28;20021;-87
2023/05/08 09:41:06;;;;;;;1.23;1.15;;;;;;;19.08;69.93;101523.38;5199055;28;20025;-86
2023/05/08 09:44:02;;;;;;;5.72;1.35;;;;;;;18.84;69.90;101519.19;5195677;28;20120;-86
2023/05/08 09:47:09;;;;;;;1.30;1.20;;;;;;;19.13;69.85;101513.38;5187064;28;20056;-85
2023/05/08 09:50:05;;;;;;;0.98;0.77;;;;;;;19.12;70.10;101519.63;5188034;28;20049;-86
2023/05/08 09:52:56;;;;;;;0.55;0.55;;;;;;;19.33;70.13;101515.00;5189854;28;20050;-87
2023/05/08 09:55:47;;;;;;;0.73;0.65;;;;;;;19.40;69.07;101518.22;5189618;28;20107;-85
2023/05/08 09:58:42;;;;;;;0.77;0.77;;;;;;;19.47;69.25;101519.63;5178551;28;20445;-85
2023/05/08 10:01:35;;;;;;;1.45;1.33;;;;;;;19.52;68.73;101514.06;5195171;28;20021;-86
2023/05/08 10:04:36;;;;;;;0.60;0.60;;;;;;;19.65;68.57;101508.03;5213326;28;20137;-87
2023/05/08 10:07:37;;;;;;;0.73;0.73;;;;;;;19.64;68.34;101502.75;5199337;28;20025;-87
2023/05/08 10:10:29;;;;;;;1.98;1.17;;;;;;;19.64;68.11;101505.41;5190810;28;20393;-88
2023/05/08 10:13:20;;;;;;;1.83;1.73;;;;;;;19.63;68.35;101501.03;5180930;28;20030;-85
2023/05/08 10:16:15;;;;;;;1.45;1.35;;;;;;;19.64;67.87;101510.75;5176174;28;20045;-85
2023/05/08 10:19:12;;;;;;;3.13;1.63;;;;;;;19.52;68.24;101506.94;5186089;28;20096;-87
2023/05/08 10:22:04;;;;;;;1.55;1.27;;;;;;;19.74;68.00;101504.00;5183163;28;20170;-88
2023/05/08 10:24:57;;;;;;;0.80;0.80;;;;;;;19.74;67.61;101514.66;5192244;28;20037;-86
2023/05/08 10:27:58;;;;;;;2.95;1.52;;;;;;;19.78;68.33;101507.34;5181281;28;20053;-88
2023/05/08 10:30:49;;;;;;;1.23;1.13;;;;;;;19.62;68.16;101497.53;5177783;28;20065;-87
2023/05/08 10:33:43;;;;;;;0.93;0.60;;;;;;;19.78;67.75;101496.69;5180329;28;20052;-86
2023/05/08 10:36:34;;;;;;;0.60;0.60;;;;;;;19.84;67.40;101498.19;5182983;28;20056;-86
2023/05/08 10:39:27;;;;;;;0.93;0.93;;;;;;;19.86;66.83;101493.66;5188818;28;20632;-87
2023/05/08 10:42:18;;;;;;;1.23;1.13;;;;;;;19.93;66.99;101489.72;5190684;28;20573;-88
2023/05/08 10:45:10;;;;;;;0.85;0.85;;;;;;;19.89;67.25;101489.03;5180552;28;20108;-86
2023/05/08 10:48:17;;;;;;;1.02;1.02;;;;;;;20.01;66.31;101490.16;5194381;28;20053;-87
2023/05/08 10:51:12;;;;;;;1.05;1.02;;;;;;;20.10;66.27;101486.13;5193216;28;20073;-87
2023/05/08 10:54:07;;;;;;;0.30;0.30;;;;;;;20.10;65.84;101486.13;5193468;28;20057;-88
2023/05/08 10:57:09;;;;;;;0.60;0.60;;;;;;;20.28;65.92;101484.25;5183934;28;20044;-87
2023/05/08 11:00:00;;;;;;;0.70;0.70;;;;;;;20.23;64.56;101480.97;5180745;28;20041;-86
2023/05/08 11:02:50;;;;;;;0.68;0.68;;;;;;;20.43;64.93;101472.72;5178532;28;20038;-86
2023/05/08 11:05:46;;;;;;;0.73;0.63;;;;;;;20.53;65.58;101473.06;5194490;28;20038;-88
2023/05/08 11:08:53;;;;;;;0.40;0.40;;;;;;;20.66;64.60;101473.22;5183341;28;20072;-86
2023/05/08 11:11:53;;;;;;;0.57;0.57;;;;;;;20.74;63.92;101478.16;5221309;28;20024;-86
2023/05/08 11:14:54;;;;;;;0.52;0.52;;;;;;;20.86;64.37;101473.91;5216853;28;20064;-87
2023/05/08 11:17:53;;;;;;;0.98;0.80;;;;;;;20.94;64.25;101476.97;5183292;28;20124;-86
2023/05/08 11:20:59;;;;;;;0.30;0.30;;;;;;;20.98;63.39;101475.00;5178666;28;20037;-87
2023/05/08 11:23:59;;;;;;;0.45;0.45;;;;;;;21.09;63.00;101469.00;5174649;28;20045;-86
2023/05/08 11:26:49;;;;;;;1.25;1.17;;;;;;;21.21;63.80;101465.59;5181268;28;20567;-87
2023/05/08 11:29:40;;;;;;;0.57;0.57;;;;;;;21.25;62.75;101469.81;5181118;28;20037;-89
2023/05/08 11:33:02;;;;;;;0.60;0.60;;;;;;;21.34;61.96;101463.91;5181083;28;20037;-85
2023/05/08 11:36:13;;;;;;;0.70;0.65;;;;;;;21.37;61.26;101466.38;5189366;28;20053;-85
2023/05/08 11:39:14;;;;;;;0.95;0.85;;;;;;;21.49;62.41;101458.56;5205119;28;20049;-88
2023/05/08 11:42:23;;;;;;;0.63;0.63;;;;;;;21.52;60.75;101456.56;5182024;28;20211;-89
2023/05/08 11:45:15;;;;;;;1.00;1.00;;;;;;;21.64;61.58;101460.31;5197892;28;20056;-87
2023/05/08 11:48:07;;;;;;;2.20;0.93;;;;;;;21.69;61.47;101452.88;5206433;28;20117;-86
2023/05/08 11:51:02;;;;;;;0.88;0.88;;;;;;;21.65;60.90;101456.69;5207014;28;20046;-84
2023/05/08 11:53:52;;;;;;;0.65;0.65;;;;;;;21.85;60.83;101454.59;5225852;28;20048;-84
2023/05/08 11:56:53;;;;;;;0.70;0.70;;;;;;;21.92;61.32;101458.59;5198120;28;20033;-86
2023/05/08 11:59:48;;;;;;;0.47;0.47;;;;;;;22.02;60.30;101457.03;5193254;28;20600;-84
2023/05/08 12:02:42;;;;;;;1.67;1.30;;;;;;;21.89;60.15;101457.94;5187297;28;20099;-84
2023/05/08 12:05:33;;;;;;;0.60;0.60;;;;;;;21.98;59.67;101458.19;5199666;28;20680;-83
2023/05/08 12:08:24;;;;;;;0.57;0.57;;;;;;;22.01;59.63;101458.03;5182687;28;20115;-83
2023/05/08 12:11:21;;;;;;;0.50;0.50;;;;;;;22.01;58.89;101458.03;5190725;28;20044;-85
2023/05/08 12:14:16;;;;;;;0.70;0.70;;;;;;;22.11;60.07;101458.28;5199205;28;20128;-84
2023/05/08 12:17:07;;;;;;;0.38;0.38;;;;;;;22.26;60.35;101460.91;5179114;28;20049;-88
2023/05/08 12:20:08;;;;;;;0.40;0.30;;;;;;;22.12;58.53;101453.78;5175168;28;20041;-85
2023/05/08 12:23:01;;;;;;;0.77;0.77;;;;;;;22.16;59.41;101457.97;5180639;28;20055;-85
2023/05/08 12:25:53;;;;;;;0.52;0.52;;;;;;;22.28;59.90;101454.50;5190435;28;20073;-84
2023/05/08 12:28:45;;;;;;;0.73;0.73;;;;;;;22.27;59.82;101449.25;5183096;28;20044;-84
2023/05/08 12:31:36;;;;;;;0.38;0.38;;;;;;;22.37;59.26;101452.19;5189664;28;20501;-85
2023/05/08 12:34:27;;;;;;;0.88;0.50;;;;;;;22.46;58.05;101454.28;5192313;28;20490;-87
2023/05/08 12:37:28;;;;;;;0.60;0.60;;;;;;;22.54;58.49;101446.63;5190907;28;20036;-85
2023/05/08 12:40:27;;;;;;;1.23;0.73;;;;;;;22.38;56.97;101452.09;5198122;28;20040;-86
2023/05/08 12:43:18;;;;;;;0.63;0.63;;;;;;;22.58;58.50;101445.47;5202952;28;20174;-86
2023/05/08 12:46:10;;;;;;;0.50;0.47;;;;;;;22.60;59.03;101448.88;5183218;28;20041;-86
2023/05/08 12:49:07;;;;;;;0.93;0.55;;;;;;;22.74;56.84;101447.94;5195230;28;20068;-87
2023/05/08 12:52:11;;;;;;;1.45;0.63;;;;;;;22.86;58.18;101446.25;5195525;28;20063;-86
2023/05/08 12:55:02;;;;;;;0.77;0.57;;;;;;;22.87;56.70;101445.31;5178174;28;20046;-87
2023/05/08 12:58:07;;;;;;;0.55;0.55;;;;;;;22.84;56.60;101434.84;5179438;28;20063;-87
2023/05/08 13:01:15;;;;;;;0.77;0.77;;;;;;;23.00;56.62;101428.44;5191119;28;20044;-87
2023/05/08 13:04:06;;;;;;;0.50;0.50;;;;;;;23.25;54.99;101427.59;5211059;28;20049;-86
2023/05/08 13:06:57;;;;;;;0.30;0.30;;;;;;;23.40;54.25;101417.66;5203607;28;20038;-85
2023/05/08 13:09:55;;;;;;;0.30;0.30;;;;;;;23.44;55.39;101423.66;5210695;28;20034;-86
2023/05/08 13:12:46;;;;;;;20.67;2.00;;;;;;;23.12;54.29;101422.22;5214108;28;20034;-85
2023/05/08 13:15:37;;;;;;;1.63;0.75;;;;;;;22.85;53.79;101425.81;5195157;28;20045;-87
2023/05/08 13:18:28;;;;;;;0.68;0.68;;;;;;;23.23;54.85;101413.47;5182714;28;20687;-88
2023/05/08 13:21:19;;;;;;;1.75;1.42;;;;;;;23.41;55.15;101405.97;5185707;28;20046;-86
2023/05/08 13:24:10;;;;;;;1.75;1.27;;;;;;;23.47;55.34;101405.53;5184253;28;20073;-88
2023/05/08 13:27:00;;;;;;;0.60;0.60;;;;;;;23.15;54.79;101403.28;5185413;28;20455;-88
2023/05/08 13:29:51;;;;;;;1.10;0.93;;;;;;;23.38;54.94;101408.88;5201714;28;20460;-87